createdAt,value
2019-01-28T00:01:33.560Z,2.73
2019-01-28T00:04:08.140Z,2.93
2019-01-28T00:06:39.966Z,2.87
2019-01-28T00:09:11.555Z,2.70
2019-01-28T00:11:50.445Z,2.70
2019-01-28T00:14:17.334Z,2.63
2019-01-28T00:16:55.387Z,2.83
2019-01-28T00:19:32.022Z,2.70
2019-01-28T00:21:59.021Z,2.63
2019-01-28T00:24:27.440Z,2.90
2019-01-28T00:26:58.885Z,3.00
2019-01-28T00:29:27.348Z,3.37
2019-01-28T00:31:55.811Z,2.90
2019-01-28T00:34:24.245Z,3.27
2019-01-28T00:36:52.702Z,2.63
2019-01-28T00:39:21.132Z,3.03
2019-01-28T00:41:49.527Z,2.80
2019-01-28T00:44:18.013Z,2.80
2019-01-28T00:46:46.497Z,2.57
2019-01-28T00:49:14.903Z,2.50
2019-01-28T00:51:43.328Z,2.47
2019-01-28T00:54:11.714Z,2.60
2019-01-28T00:56:40.160Z,3.20
2019-01-28T00:59:08.538Z,3.03
2019-01-28T01:01:36.958Z,2.70
2019-01-28T01:04:05.340Z,2.90
2019-01-28T01:06:33.755Z,2.93
2019-01-28T01:09:02.290Z,3.43
2019-01-28T01:11:30.666Z,3.17
2019-01-28T01:13:59.168Z,3.33
2019-01-28T01:16:27.550Z,3.27
2019-01-28T01:18:55.973Z,3.80
2019-01-28T01:21:24.345Z,3.47
2019-01-28T01:23:52.791Z,3.03
2019-01-28T01:26:21.183Z,3.40
2019-01-28T01:28:49.562Z,3.20
2019-01-28T01:31:18.046Z,2.93
2019-01-28T01:33:46.490Z,2.97
2019-01-28T01:36:15.052Z,3.37
2019-01-28T01:38:43.513Z,3.23
2019-01-28T01:41:11.961Z,3.70
2019-01-28T01:43:40.388Z,3.27
2019-01-28T01:46:08.758Z,3.53
2019-01-28T01:48:37.175Z,3.63
2019-01-28T01:51:05.554Z,3.33
2019-01-28T01:53:34.036Z,3.53
2019-01-28T01:56:02.435Z,3.10
2019-01-28T01:58:30.831Z,3.33
2019-01-28T02:00:59.259Z,3.30
2019-01-28T02:03:27.777Z,3.70
2019-01-28T02:05:56.273Z,3.37
2019-01-28T02:08:24.740Z,3.67
2019-01-28T02:10:53.142Z,4.10
2019-01-28T02:13:21.622Z,4.10
2019-01-28T02:15:51.124Z,3.70
2019-01-28T02:18:19.571Z,3.50
2019-01-28T02:20:48.184Z,3.60
2019-01-28T02:23:16.586Z,4.17
2019-01-28T02:25:44.969Z,4.10
2019-01-28T02:28:13.389Z,3.90
2019-01-28T02:30:41.846Z,3.93
2019-01-28T02:33:10.265Z,4.00
2019-01-28T02:35:38.642Z,3.90
2019-01-28T02:38:07.214Z,4.37
2019-01-28T02:40:35.673Z,4.33
2019-01-28T02:43:05.257Z,4.40
2019-01-28T02:45:33.622Z,3.60
2019-01-28T02:48:02.927Z,4.10
2019-01-28T02:50:31.356Z,4.00
2019-01-28T02:52:59.811Z,4.03
2019-01-28T02:55:28.242Z,4.30
2019-01-28T02:57:56.644Z,4.27
2019-01-28T03:00:25.235Z,4.30
2019-01-28T03:02:53.725Z,3.50
2019-01-28T03:05:22.141Z,3.73
2019-01-28T03:07:50.595Z,3.47
2019-01-28T03:10:22.472Z,3.50
2019-01-28T03:12:50.934Z,3.37
2019-01-28T03:15:19.394Z,3.23
2019-01-28T03:17:47.886Z,2.80
2019-01-28T03:20:17.822Z,3.00
2019-01-28T03:22:46.315Z,2.57
2019-01-28T03:25:16.827Z,3.10
2019-01-28T03:27:45.386Z,2.97
2019-01-28T03:30:19.324Z,3.07
2019-01-28T03:32:47.892Z,2.87
2019-01-28T03:35:16.392Z,2.13
2019-01-28T03:37:44.934Z,2.60
2019-01-28T03:40:20.839Z,2.60
2019-01-28T03:42:50.497Z,2.60
2019-01-28T03:45:20.935Z,2.57
2019-01-28T03:47:49.412Z,2.30
2019-01-28T03:50:19.709Z,2.50
2019-01-28T03:52:48.266Z,3.03
2019-01-28T03:55:16.729Z,2.67
2019-01-28T03:57:45.189Z,2.77
2019-01-28T04:00:26.311Z,2.70
2019-01-28T04:02:54.701Z,2.60
2019-01-28T04:05:23.267Z,2.50
2019-01-28T04:07:51.811Z,2.47
2019-01-28T04:10:22.630Z,2.27
2019-01-28T04:12:51.134Z,2.50
2019-01-28T04:15:21.527Z,2.50
2019-01-28T04:17:49.977Z,2.40
2019-01-28T04:20:19.832Z,2.73
2019-01-28T04:22:51.237Z,2.97
2019-01-28T04:25:19.709Z,2.70
2019-01-28T04:27:48.253Z,2.77
2019-01-28T04:30:27.162Z,2.67
2019-01-28T04:32:55.673Z,2.43
2019-01-28T04:35:29.615Z,2.37
2019-01-28T04:38:01.490Z,2.27
2019-01-28T04:40:29.906Z,2.83
2019-01-28T04:42:58.294Z,2.63
2019-01-28T04:45:26.881Z,2.50
2019-01-28T04:47:55.496Z,2.13
2019-01-28T04:50:23.967Z,2.20
2019-01-28T04:52:52.456Z,2.13
2019-01-28T04:55:20.870Z,2.40
2019-01-28T04:57:49.387Z,2.10
2019-01-28T05:00:21.029Z,2.10
2019-01-28T05:02:49.572Z,2.90
2019-01-28T05:05:18.025Z,3.07
2019-01-28T05:07:46.643Z,2.63
2019-01-28T05:10:20.193Z,3.03
2019-01-28T05:12:48.601Z,2.30
2019-01-28T05:15:24.808Z,2.67
2019-01-28T05:18:12.694Z,2.50
2019-01-28T05:24:00.684Z,2.30
2019-01-28T05:26:32.221Z,2.90
2019-01-28T05:29:00.871Z,2.30
2019-01-28T05:31:46.662Z,2.90
2019-01-28T05:34:14.256Z,2.13
2019-01-28T05:36:48.353Z,2.27
2019-01-28T05:39:25.671Z,1.60
2019-01-28T05:41:58.064Z,2.20
2019-01-28T05:44:26.757Z,2.13
2019-01-28T05:46:59.535Z,2.00
2019-01-28T05:52:33.196Z,2.63
2019-01-28T05:55:18.042Z,1.83
2019-01-28T05:57:43.289Z,1.93
2019-01-28T06:03:06.777Z,1.47
2019-01-28T06:05:45.630Z,1.70
2019-01-28T06:08:10.169Z,2.07
2019-01-28T06:10:47.743Z,1.50
2019-01-28T06:13:26.921Z,1.00
2019-01-28T06:16:00.058Z,1.70
2019-01-28T06:18:28.586Z,1.30
2019-01-28T06:21:01.172Z,1.40
2019-01-28T06:23:29.776Z,1.30
2019-01-28T06:25:58.204Z,1.17
2019-01-28T06:28:26.583Z,1.20
2019-01-28T06:31:01.416Z,1.50
2019-01-28T06:33:32.849Z,1.40
2019-01-28T06:36:04.197Z,1.57
2019-01-28T06:38:38.129Z,1.30
2019-01-28T06:41:06.895Z,1.23
2019-01-28T06:43:52.412Z,1.23
2019-01-28T06:46:28.554Z,1.00
2019-01-28T06:52:20.364Z,1.70
2019-01-28T07:01:23.613Z,1.40
2019-01-28T07:07:10.920Z,1.13
2019-01-28T07:13:03.321Z,1.00
2019-01-28T07:15:45.526Z,0.73
2019-01-28T07:18:29.149Z,1.07
2019-01-28T07:24:13.825Z,1.00
2019-01-28T07:26:56.510Z,1.10
2019-01-28T07:29:24.707Z,0.80
2019-01-28T07:32:01.189Z,0.90
2019-01-28T07:34:39.694Z,1.10
2019-01-28T07:37:22.082Z,1.20
2019-01-28T07:43:53.253Z,1.20
2019-01-28T07:46:26.443Z,1.00
2019-01-28T07:48:52.385Z,1.20
2019-01-28T07:51:26.244Z,0.83
2019-01-28T07:54:27.678Z,1.10
2019-01-28T08:00:19.474Z,1.10
2019-01-28T08:02:48.419Z,1.10
2019-01-28T08:05:18.369Z,1.40
2019-01-28T08:07:46.863Z,1.03
2019-01-28T08:10:32.596Z,1.30
2019-01-28T08:13:05.766Z,1.17
2019-01-28T08:16:04.938Z,1.20
2019-01-28T08:18:54.624Z,1.30
2019-01-28T08:21:23.207Z,1.33
2019-01-28T08:23:54.554Z,1.47
2019-01-28T08:26:23.116Z,1.30
2019-01-28T08:28:51.606Z,1.20
2019-01-28T08:31:23.237Z,1.37
2019-01-28T08:33:54.958Z,1.50
2019-01-28T08:36:24.799Z,1.57
2019-01-28T08:38:53.489Z,1.30
2019-01-28T08:41:23.713Z,1.37
2019-01-28T08:43:52.243Z,1.27
2019-01-28T08:46:20.653Z,1.30
2019-01-28T08:48:49.170Z,1.43
2019-01-28T08:51:20.301Z,1.13
2019-01-28T08:53:50.557Z,1.10
2019-01-28T08:56:19.078Z,1.20
2019-01-28T08:58:47.466Z,1.40
2019-01-28T09:01:16.107Z,1.50
2019-01-28T09:03:46.374Z,1.17
2019-01-28T09:06:14.959Z,1.00
2019-01-28T09:08:43.481Z,1.10
2019-01-28T09:11:15.179Z,1.10
2019-01-28T09:13:43.600Z,1.10
2019-01-28T09:16:15.082Z,1.23
2019-01-28T09:18:45.213Z,0.93
2019-01-28T09:24:47.390Z,1.20
2019-01-28T09:26:59.425Z,1.10
2019-01-28T09:29:28.095Z,1.23
2019-01-28T09:32:03.074Z,1.07
2019-01-28T09:35:26.788Z,0.93
2019-01-28T09:37:20.832Z,1.20
2019-01-28T09:40:02.350Z,1.10
2019-01-28T09:42:34.151Z,0.87
2019-01-28T09:48:35.181Z,0.90
2019-01-28T09:51:17.295Z,1.03
2019-01-28T10:00:26.424Z,1.20
2019-01-28T10:03:01.561Z,1.00
2019-01-28T10:08:38.455Z,1.10
2019-01-28T10:11:12.743Z,1.17
2019-01-28T10:13:41.135Z,1.10
2019-01-28T10:16:09.719Z,1.40
2019-01-28T10:18:41.937Z,1.10
2019-01-28T10:21:08.424Z,1.17
2019-01-28T10:23:36.837Z,1.00
2019-01-28T10:26:05.294Z,1.37
2019-01-28T10:28:33.694Z,1.37
2019-01-28T10:31:02.087Z,1.50
2019-01-28T10:33:30.459Z,1.23
2019-01-28T10:35:58.867Z,1.60
2019-01-28T10:38:27.303Z,0.80
2019-01-28T10:40:55.713Z,1.33
2019-01-28T10:43:24.091Z,1.40
2019-01-28T10:45:52.589Z,1.10
2019-01-28T10:48:20.973Z,1.07
2019-01-28T10:50:49.454Z,1.30
2019-01-28T10:53:17.834Z,1.10
2019-01-28T10:55:46.441Z,1.30
2019-01-28T10:58:14.833Z,1.20
2019-01-28T11:00:46.170Z,1.30
2019-01-28T11:03:15.907Z,1.40
2019-01-28T11:05:44.291Z,1.20
2019-01-28T11:08:12.826Z,1.33
2019-01-28T11:10:41.241Z,1.43
2019-01-28T11:13:09.603Z,1.50
2019-01-28T11:15:38.099Z,1.20
2019-01-28T11:18:15.670Z,1.20
2019-01-28T11:20:44.170Z,1.47
2019-01-28T11:23:12.553Z,1.10
2019-01-28T11:25:41.025Z,1.20
2019-01-28T11:28:09.541Z,1.63
2019-01-28T11:30:42.339Z,1.50
2019-01-28T11:33:10.701Z,1.70
2019-01-28T11:35:39.157Z,1.50
2019-01-28T11:38:07.538Z,1.30
2019-01-28T11:40:36.022Z,1.10
2019-01-28T11:43:04.807Z,0.60
2019-01-28T11:45:36.314Z,1.30
2019-01-28T11:48:05.323Z,0.87
2019-01-28T11:50:33.744Z,1.10
2019-01-28T11:53:02.119Z,1.10
2019-01-28T11:55:30.539Z,1.23
2019-01-28T11:57:58.918Z,1.20
2019-01-28T12:00:34.941Z,1.20
2019-01-28T12:03:03.326Z,1.10
2019-01-28T12:05:31.714Z,1.10
2019-01-28T12:08:00.131Z,1.30
2019-01-28T12:10:31.498Z,1.07
2019-01-28T12:12:59.978Z,1.00
2019-01-28T12:15:28.367Z,1.00
2019-01-28T12:17:56.774Z,0.90
2019-01-28T12:20:25.157Z,1.00
2019-01-28T12:22:53.648Z,1.10
2019-01-28T12:25:22.025Z,1.00
2019-01-28T12:27:50.402Z,0.90
2019-01-28T12:30:30.014Z,0.90
2019-01-28T12:32:58.389Z,0.90
2019-01-28T12:35:26.806Z,0.90
2019-01-28T12:37:55.169Z,1.00
2019-01-28T12:40:24.530Z,1.00
2019-01-28T12:42:52.895Z,1.00
2019-01-28T12:45:28.359Z,0.90
2019-01-28T12:47:56.886Z,1.00
2019-01-28T12:50:25.632Z,1.00
2019-01-28T12:52:54.092Z,0.77
2019-01-28T12:55:26.747Z,0.67
2019-01-28T12:57:55.201Z,0.97
2019-01-28T13:03:19.405Z,0.80
2019-01-28T13:05:47.826Z,0.60
2019-01-28T13:08:16.193Z,0.70
2019-01-28T13:10:44.562Z,0.90
2019-01-28T13:13:12.962Z,0.60
2019-01-28T13:15:41.334Z,0.70
2019-01-28T13:18:09.746Z,0.70
2019-01-28T13:20:38.200Z,0.80
2019-01-28T13:23:06.610Z,0.80
2019-01-28T13:25:36.831Z,0.70
2019-01-28T13:28:06.875Z,0.80
2019-01-28T13:30:39.726Z,1.00
2019-01-28T13:33:11.166Z,0.90
2019-01-28T13:35:39.536Z,0.80
2019-01-28T13:38:07.994Z,1.00
2019-01-28T13:40:36.317Z,0.77
2019-01-28T13:43:04.857Z,1.00
2019-01-28T13:45:33.268Z,0.90
2019-01-28T13:48:01.651Z,1.10
2019-01-28T13:50:30.062Z,1.30
2019-01-28T13:52:58.475Z,1.20
2019-01-28T13:55:26.891Z,1.10
2019-01-28T13:57:55.268Z,1.17
2019-01-28T14:00:30.129Z,0.97
2019-01-28T14:02:58.661Z,1.00
2019-01-28T14:05:27.334Z,1.07
2019-01-28T14:07:56.069Z,1.13
2019-01-28T14:10:24.778Z,0.97
2019-01-28T14:12:53.212Z,1.13
2019-01-28T14:15:33.315Z,1.40
2019-01-28T14:18:01.861Z,1.20
2019-01-28T14:20:35.369Z,1.50
2019-01-28T14:23:05.424Z,1.47
2019-01-28T14:25:33.943Z,1.50
2019-01-28T14:28:05.556Z,1.40
2019-01-28T14:30:43.347Z,1.63
2019-01-28T14:33:13.212Z,1.67
2019-01-28T14:35:43.477Z,1.30
2019-01-28T14:38:12.034Z,1.47
2019-01-28T14:40:41.609Z,1.40
2019-01-28T14:43:10.096Z,1.40
2019-01-28T14:45:38.769Z,1.37
2019-01-28T14:48:07.991Z,1.77
2019-01-28T14:50:37.716Z,1.57
2019-01-28T14:53:08.903Z,1.67
2019-01-28T14:55:40.761Z,1.50
2019-01-28T14:58:09.561Z,1.20
2019-01-28T15:00:41.117Z,1.30
2019-01-28T15:03:09.867Z,1.50
2019-01-28T15:05:38.633Z,1.53
2019-01-28T15:08:07.851Z,1.60
2019-01-28T15:10:36.397Z,1.30
2019-01-28T15:13:05.524Z,1.50
2019-01-28T15:15:36.719Z,1.60
2019-01-28T15:18:06.269Z,1.70
2019-01-28T15:20:34.988Z,1.57
2019-01-28T15:23:03.627Z,1.43
2019-01-28T15:25:32.820Z,1.67
2019-01-28T15:28:01.505Z,1.30
2019-01-28T15:30:32.533Z,1.40
2019-01-28T15:33:01.233Z,1.77
2019-01-28T15:35:30.001Z,1.40
2019-01-28T15:37:59.032Z,1.50
2019-01-28T15:40:32.106Z,1.70
2019-01-28T15:43:00.518Z,1.50
2019-01-28T15:45:31.631Z,1.60
2019-01-28T15:48:00.378Z,1.73
2019-01-28T15:50:29.168Z,1.40
2019-01-28T15:52:57.861Z,1.83
2019-01-28T15:55:32.485Z,1.90
2019-01-28T15:58:01.207Z,2.10
2019-01-28T16:00:34.307Z,2.03
2019-01-28T16:03:03.883Z,2.00
2019-01-28T16:05:32.629Z,2.60
2019-01-28T16:08:01.843Z,2.07
2019-01-28T16:10:30.581Z,2.20
2019-01-28T16:12:59.308Z,2.60
2019-01-28T16:15:39.176Z,2.80
2019-01-28T16:18:09.015Z,2.67
2019-01-28T16:20:38.035Z,2.77
2019-01-28T16:23:07.173Z,3.33
2019-01-28T16:25:35.819Z,3.40
2019-01-28T16:28:05.085Z,3.70
2019-01-28T16:30:35.298Z,3.13
2019-01-28T16:33:03.891Z,3.43
2019-01-28T16:35:33.028Z,3.27
2019-01-28T16:38:01.660Z,3.20
2019-01-28T16:40:30.894Z,2.90
2019-01-28T16:43:00.011Z,3.37
2019-01-28T16:45:28.600Z,3.27
2019-01-28T16:47:57.271Z,3.23
2019-01-28T16:50:31.719Z,3.57
2019-01-28T16:53:00.260Z,3.83
2019-01-28T16:55:28.962Z,3.60
2019-01-28T16:57:58.078Z,4.03
2019-01-28T17:00:35.120Z,4.13
2019-01-28T17:03:04.071Z,4.33
2019-01-28T17:05:32.781Z,4.07
2019-01-28T17:08:01.388Z,4.10
2019-01-28T17:10:29.867Z,4.03
2019-01-28T17:12:58.579Z,3.97
2019-01-28T17:15:27.218Z,4.40
2019-01-28T17:17:55.917Z,3.83
2019-01-28T17:20:35.472Z,3.80
2019-01-28T17:23:04.168Z,4.20
2019-01-28T17:25:35.500Z,4.70
2019-01-28T17:28:04.303Z,4.30
2019-01-28T17:30:42.129Z,4.40
2019-01-28T17:33:10.643Z,4.10
2019-01-28T17:35:39.249Z,4.10
2019-01-28T17:38:10.798Z,4.20
2019-01-28T17:40:39.787Z,4.10
2019-01-28T17:43:10.495Z,4.50
2019-01-28T17:45:39.098Z,4.23
2019-01-28T17:48:08.678Z,4.30
2019-01-28T17:50:43.318Z,4.30
2019-01-28T17:53:07.417Z,4.37
2019-01-28T17:55:43.884Z,3.50
2019-01-28T17:58:12.354Z,4.20
2019-01-28T18:00:50.926Z,4.13
2019-01-28T18:03:19.456Z,4.43
2019-01-28T18:05:47.866Z,4.83
2019-01-28T18:08:16.256Z,4.33
2019-01-28T18:10:44.762Z,4.53
2019-01-28T18:13:13.237Z,4.07
2019-01-28T18:15:42.456Z,4.43
2019-01-28T18:18:10.930Z,5.17
2019-01-28T18:20:39.376Z,4.63
2019-01-28T18:23:09.564Z,3.90
2019-01-28T18:25:38.582Z,3.80
2019-01-28T18:28:08.691Z,4.57
2019-01-28T18:30:39.218Z,4.67
2019-01-28T18:33:08.341Z,4.83
2019-01-28T18:35:37.815Z,4.70
2019-01-28T18:38:06.947Z,5.57
2019-01-28T18:40:35.531Z,5.73
2019-01-28T18:43:04.544Z,6.30
2019-01-28T18:45:33.065Z,5.50
2019-01-28T18:48:01.530Z,6.13
2019-01-28T18:50:30.886Z,5.60
2019-01-28T18:53:00.324Z,5.63
2019-01-28T18:55:29.105Z,5.80
2019-01-28T18:57:57.674Z,5.17
2019-01-28T19:00:32.244Z,6.07
2019-01-28T19:03:02.930Z,5.90
2019-01-28T19:05:41.982Z,6.27
2019-01-28T19:08:27.230Z,5.67
2019-01-28T19:11:00.528Z,5.30
2019-01-28T19:13:46.202Z,5.53
2019-01-28T19:16:16.440Z,5.83
2019-01-28T19:18:55.349Z,5.77
2019-01-28T19:21:25.460Z,6.07
2019-01-28T19:23:53.910Z,6.30
2019-01-28T19:26:22.439Z,5.87
2019-01-28T19:28:50.949Z,5.93
2019-01-28T19:31:19.386Z,5.90
2019-01-28T19:33:49.806Z,6.80
2019-01-28T19:36:18.346Z,5.63
2019-01-28T19:38:46.952Z,7.33
2019-01-28T19:41:15.551Z,6.63
2019-01-28T19:43:44.020Z,5.70
2019-01-28T19:46:12.444Z,6.23
2019-01-28T19:48:41.088Z,6.17
2019-01-28T19:51:15.635Z,6.10
2019-01-28T19:53:39.883Z,6.53
2019-01-28T19:56:08.337Z,7.20
2019-01-28T19:58:36.803Z,7.40
2019-01-28T20:01:06.867Z,7.03
2019-01-28T20:03:35.316Z,7.47
2019-01-28T20:06:03.837Z,7.37
2019-01-28T20:08:32.296Z,6.83
2019-01-28T20:11:01.188Z,7.23
2019-01-28T20:13:30.395Z,6.60
2019-01-28T20:15:58.843Z,6.20
2019-01-28T20:18:27.451Z,6.30
2019-01-28T20:20:56.290Z,6.97
2019-01-28T20:23:28.967Z,7.47
2019-01-28T20:25:57.367Z,7.30
2019-01-28T20:28:25.896Z,7.07
2019-01-28T20:30:54.317Z,7.77
2019-01-28T20:33:22.957Z,7.17
2019-01-28T20:35:52.317Z,7.03
2019-01-28T20:38:20.846Z,6.80
2019-01-28T20:40:49.408Z,7.27
2019-01-28T20:43:23.952Z,8.10
2019-01-28T20:45:49.577Z,7.73
2019-01-28T20:48:19.804Z,8.10
2019-01-28T20:50:49.189Z,7.80
2019-01-28T20:53:20.326Z,7.53
2019-01-28T20:55:48.833Z,7.97
2019-01-28T20:58:17.242Z,8.37
2019-01-28T21:00:45.893Z,7.13
2019-01-28T21:03:14.515Z,7.97
2019-01-28T21:05:43.402Z,8.47
2019-01-28T21:08:11.901Z,8.77
2019-01-28T21:10:40.569Z,7.80
2019-01-28T21:13:08.998Z,7.60
2019-01-28T21:15:37.366Z,6.10
2019-01-28T21:18:05.918Z,6.70
2019-01-28T21:20:34.293Z,7.03
2019-01-28T21:23:03.090Z,6.90
2019-01-28T21:25:31.742Z,5.70
2019-01-28T21:28:00.126Z,6.13
2019-01-28T21:30:34.577Z,5.90
2019-01-28T21:33:02.989Z,5.70
2019-01-28T21:35:36.163Z,4.67
2019-01-28T21:38:06.261Z,4.47
2019-01-28T21:40:34.815Z,3.63
2019-01-28T21:43:03.259Z,3.67
2019-01-28T21:45:31.732Z,3.57
2019-01-28T21:48:00.183Z,3.60
2019-01-28T21:50:29.775Z,3.37
2019-01-28T21:52:58.160Z,3.57
2019-01-28T21:55:27.270Z,4.23
2019-01-28T21:57:55.770Z,4.40
2019-01-28T22:00:24.216Z,4.00
2019-01-28T22:02:52.897Z,4.00
2019-01-28T22:05:21.343Z,3.83
2019-01-28T22:07:49.790Z,3.77
2019-01-28T22:10:18.451Z,4.00
2019-01-28T22:12:47.817Z,4.53
2019-01-28T22:15:17.892Z,4.87
2019-01-28T22:17:46.336Z,5.13
2019-01-28T22:20:15.308Z,5.33
2019-01-28T22:22:43.693Z,5.43
2019-01-28T22:25:14.497Z,5.53
2019-01-28T22:27:42.868Z,5.97
2019-01-28T22:30:22.322Z,6.13
2019-01-28T22:32:50.693Z,6.20
2019-01-28T22:35:19.071Z,6.77
2019-01-28T22:37:47.489Z,6.27
2019-01-28T22:40:18.454Z,6.50
2019-01-28T22:42:47.105Z,6.27
2019-01-28T22:45:20.039Z,6.37
2019-01-28T22:47:48.727Z,6.80
2019-01-28T22:50:24.084Z,5.63
2019-01-28T22:52:53.402Z,5.90
2019-01-28T22:55:22.619Z,5.60
2019-01-28T22:57:51.095Z,6.30
2019-01-28T23:00:36.378Z,5.67
2019-01-28T23:03:05.395Z,5.63
2019-01-28T23:05:33.993Z,5.13
2019-01-28T23:08:02.365Z,5.70
2019-01-28T23:10:30.854Z,4.70
2019-01-28T23:12:59.307Z,5.27
2019-01-28T23:15:27.796Z,5.17
2019-01-28T23:17:56.246Z,4.63
2019-01-28T23:20:24.652Z,4.67
2019-01-28T23:22:53.030Z,4.83
2019-01-28T23:25:21.510Z,5.33
2019-01-28T23:27:49.895Z,4.73
2019-01-28T23:30:18.271Z,4.87
2019-01-28T23:32:46.759Z,4.10
2019-01-28T23:35:15.142Z,4.17
2019-01-28T23:37:43.550Z,4.07
2019-01-28T23:40:11.927Z,4.10
2019-01-28T23:42:40.550Z,4.70
2019-01-28T23:45:14.213Z,5.17
2019-01-28T23:47:42.696Z,5.00
2019-01-28T23:50:13.365Z,5.60
2019-01-28T23:52:41.778Z,4.80
2019-01-28T23:55:10.312Z,4.83
2019-01-28T23:57:38.722Z,4.57
